createdAt,value
2023-05-06T00:02:04.281Z,99843.56
2023-05-06T00:04:31.314Z,99845.69
2023-05-06T00:06:58.367Z,99843.00
2023-05-06T00:09:25.490Z,99842.41
2023-05-06T00:11:52.638Z,99838.66
2023-05-06T00:14:19.863Z,99838.66
2023-05-06T00:16:46.833Z,99841.13
2023-05-06T00:19:13.943Z,99830.34
2023-05-06T00:21:40.906Z,99834.69
2023-05-06T00:24:08.089Z,99834.47
2023-05-06T00:26:35.042Z,99834.47
2023-05-06T00:29:02.114Z,99828.06
2023-05-06T00:31:29.178Z,99826.19
2023-05-06T00:33:56.347Z,99824.31
2023-05-06T00:36:23.715Z,99825.38
2023-05-06T00:38:51.413Z,99824.56
2023-05-06T00:41:18.626Z,99824.56
2023-05-06T00:43:45.634Z,99821.00
2023-05-06T00:46:17.074Z,99814.00
2023-05-06T00:48:44.835Z,99815.03
2023-05-06T00:51:12.690Z,99815.03
2023-05-06T00:53:40.095Z,99817.72
2023-05-06T00:56:07.868Z,99817.97
2023-05-06T00:58:35.944Z,99816.31
2023-05-06T01:01:03.235Z,99823.34
2023-05-06T01:03:31.345Z,99808.47
2023-05-06T01:06:11.112Z,99810.56
2023-05-06T01:09:29.852Z,99815.94
2023-05-06T01:12:21.238Z,99814.28
2023-05-06T01:15:10.172Z,99813.69
2023-05-06T01:17:44.834Z,99818.47
2023-05-06T01:20:12.965Z,99816.81
2023-05-06T01:22:39.947Z,99814.59
2023-05-06T01:25:08.202Z,99812.34
2023-05-06T01:27:35.345Z,99818.16
2023-05-06T01:30:05.379Z,99807.84
2023-05-06T01:32:56.800Z,99813.69
2023-05-06T01:35:59.963Z,99817.66
2023-05-06T01:38:43.229Z,99818.88
2023-05-06T01:41:16.519Z,99815.84
2023-05-06T01:43:47.349Z,99817.09
2023-05-06T01:46:18.084Z,99812.16
2023-05-06T01:48:49.089Z,99809.91
2023-05-06T01:51:16.361Z,99811.41
2023-05-06T01:53:43.370Z,99818.88
2023-05-06T01:56:10.332Z,99817.44
2023-05-06T01:58:38.318Z,99811.69
2023-05-06T02:01:05.804Z,99821.00
2023-05-06T02:03:33.591Z,99820.59
2023-05-06T02:06:00.706Z,99824.75
2023-05-06T02:08:30.152Z,99831.59
2023-05-06T02:10:57.121Z,99828.31
2023-05-06T02:13:24.142Z,99821.53
2023-05-06T02:15:54.982Z,99821.13
2023-05-06T02:18:22.946Z,99828.59
2023-05-06T02:20:50.818Z,99822.81
2023-05-06T02:23:18.751Z,99827.59
2023-05-06T02:25:46.613Z,99835.28
2023-05-06T02:28:13.560Z,99830.31
2023-05-06T02:30:40.769Z,99827.88
2023-05-06T02:33:07.720Z,99828.28
2023-05-06T02:35:34.781Z,99823.72
2023-05-06T02:38:01.889Z,99822.09
2023-05-06T02:40:28.897Z,99814.47
2023-05-06T02:42:55.968Z,99813.06
2023-05-06T02:45:41.785Z,99817.00
2023-05-06T02:48:27.488Z,99818.03
2023-05-06T02:50:54.414Z,99819.28
2023-05-06T02:53:21.386Z,99819.72
2023-05-06T02:55:48.377Z,99818.53
2023-05-06T02:58:15.308Z,99809.84
2023-05-06T03:00:42.580Z,99810.28
2023-05-06T03:03:09.934Z,99800.19
2023-05-06T03:05:36.871Z,99810.31
2023-05-06T03:08:03.865Z,99807.22
2023-05-06T03:10:31.478Z,99813.03
2023-05-06T03:12:59.310Z,99812.41
2023-05-06T03:15:27.174Z,99813.69
2023-05-06T03:17:54.364Z,99813.09
2023-05-06T03:20:21.979Z,99808.75
2023-05-06T03:22:53.377Z,99810.81
2023-05-06T03:25:21.860Z,99802.97
2023-05-06T03:27:49.007Z,99804.25
2023-05-06T03:30:19.781Z,99804.66
2023-05-06T03:32:48.840Z,99806.75
2023-05-06T03:35:21.596Z,99802.63
2023-05-06T03:37:52.857Z,99805.94
2023-05-06T03:40:21.594Z,99806.16
2023-05-06T03:42:48.728Z,99804.72
2023-05-06T03:45:15.968Z,99804.34
2023-05-06T03:47:43.885Z,99805.56
2023-05-06T03:50:12.145Z,99806.81
2023-05-06T03:52:40.596Z,99812.41
2023-05-06T03:55:08.292Z,99813.44
2023-05-06T03:57:36.352Z,99813.84
2023-05-06T04:00:04.720Z,99817.56
2023-05-06T04:02:35.299Z,99809.75
2023-05-06T04:05:03.861Z,99812.66
2023-05-06T04:07:31.062Z,99819.03
2023-05-06T04:09:58.021Z,99816.78
2023-05-06T04:12:25.132Z,99820.47
2023-05-06T04:14:52.767Z,99819.84
2023-05-06T04:17:19.994Z,99824.59
2023-05-06T04:19:47.745Z,99817.59
2023-05-06T04:22:14.712Z,99824.00
2023-05-06T04:24:45.627Z,99834.94
2023-05-06T04:27:13.619Z,99832.03
2023-05-06T04:29:43.374Z,99833.91
2023-05-06T04:32:11.688Z,99831.22
2023-05-06T04:34:38.767Z,99842.75
2023-05-06T04:37:07.443Z,99839.88
2023-05-06T04:39:48.758Z,99842.31
2023-05-06T04:42:16.726Z,99844.81
2023-05-06T04:44:51.392Z,99838.22
2023-05-06T04:47:23.037Z,99845.84
2023-05-06T04:49:52.166Z,99844.84
2023-05-06T04:52:19.981Z,99844.41
2023-05-06T04:54:46.919Z,99844.41
2023-05-06T04:57:14.085Z,99842.94
2023-05-06T04:59:43.805Z,99843.56
2023-05-06T05:02:11.668Z,99843.13
2023-05-06T05:04:41.238Z,99851.78
2023-05-06T05:07:08.481Z,99861.28
2023-05-06T05:09:36.301Z,99862.50
2023-05-06T05:12:04.110Z,99861.25
2023-05-06T05:14:34.801Z,99862.47
2023-05-06T05:17:02.147Z,99865.75
2023-05-06T05:19:29.222Z,99866.16
2023-05-06T05:21:57.105Z,99865.75
2023-05-06T05:24:25.981Z,99865.94
2023-05-06T05:26:52.992Z,99861.97
2023-05-06T05:29:20.579Z,99868.59
2023-05-06T05:31:48.418Z,99866.28
2023-05-06T05:34:15.649Z,99866.69
2023-05-06T05:36:43.220Z,99865.44
2023-05-06T05:39:12.262Z,99868.53
2023-05-06T05:41:43.978Z,99870.75
2023-05-06T05:44:11.185Z,99868.47
2023-05-06T05:46:39.653Z,99870.50
2023-05-06T05:49:07.122Z,99870.69
2023-05-06T05:51:34.282Z,99870.06
2023-05-06T05:54:04.209Z,99871.25
2023-05-06T05:56:31.712Z,99877.03
2023-05-06T05:58:59.275Z,99870.19
2023-05-06T06:01:26.372Z,99879.44
2023-05-06T06:03:54.941Z,99869.94
2023-05-06T06:06:23.617Z,99870.31
2023-05-06T06:08:50.629Z,99865.31
2023-05-06T06:11:17.872Z,99869.00
2023-05-06T06:13:47.843Z,99879.72
2023-05-06T06:16:15.363Z,99868.13
2023-05-06T06:18:42.371Z,99869.94
2023-05-06T06:21:09.391Z,99870.09
2023-05-06T06:23:36.397Z,99870.03
2023-05-06T06:26:04.595Z,99874.31
2023-05-06T06:28:33.215Z,99877.16
2023-05-06T06:31:00.220Z,99881.44
2023-05-06T06:33:27.281Z,99882.19
2023-05-06T06:35:54.695Z,99892.88
2023-05-06T06:38:21.618Z,99887.44
2023-05-06T06:40:48.573Z,99892.97
2023-05-06T06:43:15.506Z,99896.66
2023-05-06T06:45:51.037Z,99894.13
2023-05-06T06:48:18.890Z,99896.94
2023-05-06T06:50:46.558Z,99902.06
2023-05-06T06:53:13.480Z,99897.66
2023-05-06T06:55:44.437Z,99900.47
2023-05-06T06:58:11.638Z,99896.06
2023-05-06T07:00:38.601Z,99900.78
2023-05-06T07:03:05.657Z,99901.78
2023-05-06T07:05:32.683Z,99904.59
2023-05-06T07:07:59.896Z,99906.41
2023-05-06T07:10:27.127Z,99909.25
2023-05-06T07:12:54.292Z,99910.78
2023-05-06T07:15:21.456Z,99914.69
2023-05-06T07:17:48.442Z,99914.03
2023-05-06T07:20:16.186Z,99912.50
2023-05-06T07:22:44.253Z,99909.72
2023-05-06T07:25:11.443Z,99912.31
2023-05-06T07:27:38.599Z,99915.16
2023-05-06T07:30:06.772Z,99913.78
2023-05-06T07:32:33.827Z,99905.34
2023-05-06T07:35:01.556Z,99906.09
2023-05-06T07:37:28.580Z,99903.06
2023-05-06T07:39:57.382Z,99903.78
2023-05-06T07:42:24.372Z,99908.00
2023-05-06T07:44:51.424Z,99916.38
2023-05-06T07:47:32.263Z,99915.22
2023-05-06T07:50:00.005Z,99915.47
2023-05-06T07:52:27.638Z,99916.28
2023-05-06T07:54:54.742Z,99914.41
2023-05-06T07:57:21.810Z,99917.94
2023-05-06T07:59:51.062Z,99918.16
2023-05-06T08:02:18.622Z,99915.06
2023-05-06T08:04:46.395Z,99921.53
2023-05-06T08:07:13.500Z,99921.97
2023-05-06T08:09:40.479Z,99919.97
2023-05-06T08:12:07.513Z,99923.28
2023-05-06T08:14:34.467Z,99923.47
2023-05-06T08:17:01.537Z,99927.47
2023-05-06T08:19:28.836Z,99924.84
2023-05-06T08:21:56.161Z,99921.53
2023-05-06T08:24:23.131Z,99920.06
2023-05-06T08:26:50.088Z,99928.03
2023-05-06T08:29:17.075Z,99925.41
2023-05-06T08:31:44.082Z,99925.59
2023-05-06T08:34:11.032Z,99915.13
2023-05-06T08:36:38.000Z,99917.31
2023-05-06T08:39:05.957Z,99925.06
2023-05-06T08:41:34.380Z,99923.88
2023-05-06T08:44:03.324Z,99926.47
2023-05-06T08:46:31.109Z,99920.44
2023-05-06T08:48:59.129Z,99920.81
2023-05-06T08:51:31.779Z,99923.19
2023-05-06T08:54:04.692Z,99921.56
2023-05-06T08:56:34.622Z,99913.63
2023-05-06T08:59:02.195Z,99917.97
2023-05-06T09:01:33.157Z,99924.06
2023-05-06T09:04:01.236Z,99913.03
2023-05-06T09:06:28.408Z,99918.28
2023-05-06T09:08:55.573Z,99914.06
2023-05-06T09:11:29.393Z,99915.56
2023-05-06T09:14:10.923Z,99910.84
2023-05-06T09:16:41.357Z,99903.38
2023-05-06T09:19:08.331Z,99906.69
2023-05-06T09:21:40.762Z,99909.22
2023-05-06T09:24:10.348Z,99907.69
2023-05-06T09:26:40.833Z,99908.66
2023-05-06T09:29:08.054Z,99910.59
2023-05-06T09:31:45.030Z,99907.13
2023-05-06T09:34:12.927Z,99903.38
2023-05-06T09:36:40.112Z,99900.72
2023-05-06T09:39:07.536Z,99900.78
2023-05-06T09:41:35.314Z,99906.28
2023-05-06T09:44:02.933Z,99907.16
2023-05-06T09:46:30.294Z,99904.06
2023-05-06T09:48:58.205Z,99899.31
2023-05-06T09:51:28.386Z,99901.59
2023-05-06T09:53:57.654Z,99907.09
2023-05-06T09:56:26.086Z,99904.38
2023-05-06T09:58:54.373Z,99894.34
2023-05-06T10:01:32.786Z,99905.28
2023-05-06T10:04:10.911Z,99902.84
2023-05-06T10:06:40.745Z,99892.28
2023-05-06T10:09:11.328Z,99887.69
2023-05-06T10:11:39.401Z,99887.69
2023-05-06T10:14:07.700Z,99880.09
2023-05-06T10:16:36.497Z,99878.72
2023-05-06T10:19:06.533Z,99879.56
2023-05-06T10:21:35.858Z,99872.75
2023-05-06T10:24:11.295Z,99867.59
2023-05-06T10:26:40.725Z,99874.09
2023-05-06T10:29:10.998Z,99873.56
2023-05-06T10:31:53.658Z,99872.47
2023-05-06T10:34:22.541Z,99875.16
2023-05-06T10:36:57.256Z,99867.72
2023-05-06T10:39:24.705Z,99867.09
2023-05-06T10:41:51.703Z,99871.56
2023-05-06T10:44:38.598Z,99861.53
2023-05-06T10:47:05.643Z,99860.69
2023-05-06T10:49:32.637Z,99865.03
2023-05-06T10:52:16.882Z,99862.56
2023-05-06T10:54:51.489Z,99853.19
2023-05-06T10:57:20.724Z,99855.38
2023-05-06T10:59:48.693Z,99847.00
2023-05-06T11:02:20.569Z,99844.31
2023-05-06T11:05:01.749Z,99836.06
2023-05-06T11:07:28.810Z,99834.44
2023-05-06T11:10:01.630Z,99844.09
2023-05-06T11:12:47.231Z,99838.91
2023-05-06T11:15:36.016Z,99840.81
2023-05-06T11:18:26.369Z,99836.69
2023-05-06T11:21:00.850Z,99836.78
2023-05-06T11:23:43.321Z,99826.91
2023-05-06T11:26:11.766Z,99827.97
2023-05-06T11:28:39.970Z,99823.00
2023-05-06T11:31:08.198Z,99822.34
2023-05-06T11:33:37.217Z,99834.53
2023-05-06T11:36:05.555Z,99826.78
2023-05-06T11:38:51.355Z,99829.91
2023-05-06T11:41:19.162Z,99831.03
2023-05-06T11:43:47.063Z,99825.53
2023-05-06T11:46:14.063Z,99831.28
2023-05-06T11:48:41.012Z,99822.44
2023-05-06T11:51:08.196Z,99826.00
2023-05-06T11:53:35.414Z,99821.84
2023-05-06T11:56:02.873Z,99824.25
2023-05-06T11:58:30.272Z,99829.22
2023-05-06T12:01:00.170Z,99831.06
2023-05-06T12:03:28.694Z,99826.47
2023-05-06T12:05:56.834Z,99819.28
2023-05-06T12:08:29.661Z,99830.94
2023-05-06T12:11:06.187Z,99824.63
2023-05-06T12:13:36.526Z,99823.44
2023-05-06T12:16:06.014Z,99818.81
2023-05-06T12:18:33.358Z,99815.25
2023-05-06T12:21:05.942Z,99819.69
2023-05-06T12:23:33.148Z,99818.72
2023-05-06T12:26:08.170Z,99820.91
2023-05-06T12:28:36.818Z,99818.25
2023-05-06T12:31:24.183Z,99814.94
2023-05-06T12:33:51.301Z,99814.06
2023-05-06T12:36:19.399Z,99809.28
2023-05-06T12:38:58.304Z,99813.25
2023-05-06T12:41:42.594Z,99815.50
2023-05-06T12:44:39.046Z,99812.94
2023-05-06T12:47:08.777Z,99811.00
2023-05-06T12:49:58.244Z,99813.53
2023-05-06T12:52:28.766Z,99816.66
2023-05-06T12:54:56.560Z,99805.75
2023-05-06T12:57:23.562Z,99805.94
2023-05-06T12:59:50.654Z,99800.22
2023-05-06T13:02:18.252Z,99796.00
2023-05-06T13:04:46.659Z,99797.59
2023-05-06T13:07:13.696Z,99797.53
2023-05-06T13:09:40.764Z,99793.28
2023-05-06T13:12:07.841Z,99790.56
2023-05-06T13:14:36.408Z,99783.91
2023-05-06T13:17:06.704Z,99780.59
2023-05-06T13:19:34.173Z,99773.06
2023-05-06T13:22:01.671Z,99767.19
2023-05-06T13:24:29.725Z,99761.84
2023-05-06T13:26:57.098Z,99763.56
2023-05-06T13:29:24.920Z,99758.97
2023-05-06T13:31:52.400Z,99749.81
2023-05-06T13:34:19.447Z,99755.09
2023-05-06T13:36:49.552Z,99748.38
2023-05-06T13:39:16.797Z,99744.66
2023-05-06T13:41:47.543Z,99747.63
2023-05-06T13:44:14.556Z,99740.84
2023-05-06T13:46:43.010Z,99736.00
2023-05-06T13:49:11.825Z,99734.53
2023-05-06T13:51:38.765Z,99729.22
2023-05-06T13:54:06.017Z,99731.28
2023-05-06T13:56:34.230Z,99732.53
2023-05-06T13:59:01.376Z,99715.34
2023-05-06T14:01:28.411Z,99727.56
2023-05-06T14:03:55.434Z,99718.53
2023-05-06T14:06:22.358Z,99722.50
2023-05-06T14:08:49.285Z,99718.06
2023-05-06T14:11:16.394Z,99717.13
2023-05-06T14:13:44.320Z,99707.78
2023-05-06T14:16:11.320Z,99713.00
2023-05-06T14:18:38.316Z,99718.72
2023-05-06T14:21:05.362Z,99711.31
2023-05-06T14:23:32.472Z,99700.22
2023-05-06T14:25:59.454Z,99698.28
2023-05-06T14:28:26.506Z,99695.41
2023-05-06T14:30:54.131Z,99692.94
2023-05-06T14:33:23.141Z,99693.91
2023-05-06T14:35:52.470Z,99694.19
2023-05-06T14:38:19.872Z,99687.34
2023-05-06T14:40:46.960Z,99693.28
2023-05-06T14:43:13.927Z,99692.09
2023-05-06T14:45:40.944Z,99683.91
2023-05-06T14:48:08.027Z,99677.75
2023-05-06T14:50:35.045Z,99680.63
2023-05-06T14:53:03.727Z,99676.22
2023-05-06T14:55:31.157Z,99683.47
2023-05-06T14:57:58.067Z,99673.38
2023-05-06T15:00:25.250Z,99676.63
2023-05-06T15:02:52.215Z,99672.75
2023-05-06T15:05:19.942Z,99669.03
2023-05-06T15:07:46.933Z,99662.06
2023-05-06T15:10:13.938Z,99675.00
2023-05-06T15:12:40.998Z,99677.69
2023-05-06T15:15:09.035Z,99678.06
2023-05-06T15:17:36.332Z,99675.75
2023-05-06T15:20:04.458Z,99675.09
2023-05-06T15:22:31.426Z,99676.47
2023-05-06T15:24:58.437Z,99680.38
2023-05-06T15:27:25.487Z,99671.13
2023-05-06T15:29:52.431Z,99679.78
2023-05-06T15:32:19.415Z,99676.06
2023-05-06T15:34:46.357Z,99679.06
2023-05-06T15:37:15.774Z,99676.03
2023-05-06T15:39:42.812Z,99677.81
2023-05-06T15:42:10.798Z,99677.31
2023-05-06T15:44:37.876Z,99684.00
2023-05-06T15:47:05.043Z,99685.00
2023-05-06T15:52:11.058Z,99676.22
2023-05-06T15:54:41.379Z,99680.66
2023-05-06T15:57:08.462Z,99673.97
2023-05-06T15:59:35.566Z,99672.38
2023-05-06T16:04:33.812Z,99665.75
2023-05-06T16:07:02.184Z,99660.66
2023-05-06T16:09:29.141Z,99668.53
2023-05-06T16:11:56.109Z,99663.22
2023-05-06T16:14:23.038Z,99662.97
2023-05-06T16:16:49.982Z,99661.84
2023-05-06T16:19:17.566Z,99662.75
2023-05-06T16:21:44.633Z,99668.50
2023-05-06T16:24:11.667Z,99658.94
2023-05-06T16:26:38.758Z,99662.97
2023-05-06T16:29:06.055Z,99657.63
2023-05-06T16:31:33.732Z,99652.75
2023-05-06T16:34:00.739Z,99646.50
2023-05-06T16:36:28.545Z,99643.59
2023-05-06T16:38:55.622Z,99652.84
2023-05-06T16:41:22.635Z,99646.47
2023-05-06T16:43:49.794Z,99646.06
2023-05-06T16:46:16.898Z,99645.34
2023-05-06T16:48:43.974Z,99641.63
2023-05-06T16:51:13.565Z,99642.97
2023-05-06T16:53:40.680Z,99650.16
2023-05-06T16:56:07.703Z,99637.88
2023-05-06T16:58:34.911Z,99642.81
2023-05-06T17:01:01.856Z,99635.38
2023-05-06T17:03:28.841Z,99635.38
2023-05-06T17:05:55.827Z,99634.19
2023-05-06T17:08:24.482Z,99627.63
2023-05-06T17:10:53.840Z,99632.06
2023-05-06T17:13:20.885Z,99632.63
2023-05-06T17:15:47.897Z,99633.09
2023-05-06T17:18:14.844Z,99637.16
2023-05-06T17:20:54.294Z,99632.09
2023-05-06T17:23:23.533Z,99629.59
2023-05-06T17:25:50.935Z,99625.81
2023-05-06T17:28:18.933Z,99625.03
2023-05-06T17:30:46.603Z,99617.69
2023-05-06T17:33:13.730Z,99618.22
2023-05-06T17:35:40.718Z,99624.19
2023-05-06T17:38:07.922Z,99619.22
2023-05-06T17:40:34.865Z,99619.38
2023-05-06T17:43:01.887Z,99619.03
2023-05-06T17:45:28.893Z,99625.75
2023-05-06T17:47:56.751Z,99619.59
2023-05-06T17:50:23.834Z,99619.69
2023-05-06T17:52:52.705Z,99615.94
2023-05-06T17:55:21.897Z,99619.84
2023-05-06T17:57:49.426Z,99616.88
2023-05-06T18:00:19.057Z,99618.03
2023-05-06T18:02:46.251Z,99622.72
2023-05-06T18:05:13.738Z,99617.28
2023-05-06T18:07:40.948Z,99623.03
2023-05-06T18:10:08.820Z,99623.81
2023-05-06T18:12:35.994Z,99628.97
2023-05-06T18:15:03.291Z,99631.38
2023-05-06T18:17:30.809Z,99635.69
2023-05-06T18:19:57.781Z,99635.03
2023-05-06T18:22:24.798Z,99628.88
2023-05-06T18:24:55.005Z,99632.59
2023-05-06T18:27:22.930Z,99639.53
2023-05-06T18:29:49.922Z,99636.94
2023-05-06T18:32:18.109Z,99640.56
2023-05-06T18:34:45.252Z,99644.19
2023-05-06T18:37:12.591Z,99638.56
2023-05-06T18:39:48.922Z,99638.66
2023-05-06T18:42:16.575Z,99636.56
2023-05-06T18:44:43.798Z,99640.44
2023-05-06T18:47:10.831Z,99642.66
2023-05-06T18:49:37.875Z,99641.06
2023-05-06T18:52:05.246Z,99644.91
2023-05-06T18:54:32.462Z,99646.56
2023-05-06T18:57:01.095Z,99646.59
2023-05-06T18:59:28.861Z,99646.63
2023-05-06T19:01:55.914Z,99643.63
2023-05-06T19:04:23.204Z,99646.06
2023-05-06T19:06:51.562Z,99643.38
2023-05-06T19:09:18.617Z,99648.81
2023-05-06T19:11:45.586Z,99654.78
2023-05-06T19:14:12.501Z,99655.34
2023-05-06T19:16:39.441Z,99655.88
2023-05-06T19:19:07.251Z,99663.47
2023-05-06T19:21:35.515Z,99667.81
2023-05-06T19:24:02.831Z,99671.06
2023-05-06T19:26:30.051Z,99665.91
2023-05-06T19:28:57.143Z,99672.63
2023-05-06T19:31:24.164Z,99681.84
2023-05-06T19:33:51.163Z,99676.69
2023-05-06T19:36:18.119Z,99671.50
2023-05-06T19:38:45.171Z,99675.28
2023-05-06T19:41:12.313Z,99674.44
2023-05-06T19:43:43.766Z,99680.09
2023-05-06T19:46:11.715Z,99683.59
2023-05-06T19:48:39.013Z,99684.66
2023-05-06T19:51:06.604Z,99680.06
2023-05-06T19:53:34.141Z,99679.19
2023-05-06T19:56:16.916Z,99680.25
2023-05-06T19:58:44.218Z,99675.59
2023-05-06T20:01:14.651Z,99679.94
2023-05-06T20:03:41.670Z,99684.75
2023-05-06T20:06:08.779Z,99676.03
2023-05-06T20:08:35.765Z,99682.28
2023-05-06T20:11:02.776Z,99678.72
2023-05-06T20:13:29.742Z,99678.66
2023-05-06T20:15:57.266Z,99670.25
2023-05-06T20:18:24.868Z,99672.94
2023-05-06T20:20:51.797Z,99676.41
2023-05-06T20:23:18.764Z,99663.63
2023-05-06T20:25:45.693Z,99670.41
2023-05-06T20:28:12.721Z,99671.16
2023-05-06T20:30:39.969Z,99670.88
2023-05-06T20:33:07.843Z,99666.22
2023-05-06T20:35:38.266Z,99668.41
2023-05-06T20:38:06.368Z,99672.13
2023-05-06T20:40:35.678Z,99683.25
2023-05-06T20:43:02.967Z,99677.50
2023-05-06T20:45:30.981Z,99678.28
2023-05-06T20:47:58.465Z,99678.81
2023-05-06T20:50:25.706Z,99682.03
2023-05-06T20:52:54.246Z,99678.75
2023-05-06T20:55:23.693Z,99680.34
2023-05-06T20:57:51.335Z,99682.72
2023-05-06T21:00:19.262Z,99676.75
2023-05-06T21:02:46.407Z,99672.63
2023-05-06T21:05:13.623Z,99675.06
2023-05-06T21:07:41.239Z,99677.22
2023-05-06T21:10:12.437Z,99672.28
2023-05-06T21:12:39.531Z,99674.44
2023-05-06T21:15:07.430Z,99668.72
2023-05-06T21:17:34.656Z,99665.44
2023-05-06T21:20:03.551Z,99671.38
2023-05-06T21:22:32.399Z,99681.66
2023-05-06T21:24:59.933Z,99677.81
2023-05-06T21:27:26.860Z,99673.72
2023-05-06T21:29:53.853Z,99672.63
2023-05-06T21:32:21.057Z,99671.22
2023-05-06T21:34:48.017Z,99668.22
2023-05-06T21:37:14.968Z,99678.72
2023-05-06T21:39:41.891Z,99675.44
2023-05-06T21:42:08.846Z,99672.69
2023-05-06T21:44:35.777Z,99664.00
2023-05-06T21:47:02.691Z,99663.94
2023-05-06T21:49:29.637Z,99663.63
2023-05-06T21:51:56.579Z,99665.75
2023-05-06T21:54:24.543Z,99661.94
2023-05-06T21:56:51.572Z,99666.78
2023-05-06T21:59:19.649Z,99662.13
2023-05-06T22:01:46.773Z,99656.41
2023-05-06T22:04:15.212Z,99654.44
2023-05-06T22:06:42.220Z,99649.53
2023-05-06T22:09:09.348Z,99654.41
2023-05-06T22:11:40.405Z,99653.47
2023-05-06T22:14:07.307Z,99652.59
2023-05-06T22:16:37.749Z,99652.03
2023-05-06T22:19:05.880Z,99650.31
2023-05-06T22:21:37.039Z,99648.91
2023-05-06T22:24:04.246Z,99652.13
2023-05-06T22:26:32.915Z,99650.72
2023-05-06T22:28:59.935Z,99640.44
2023-05-06T22:31:27.010Z,99636.34
2023-05-06T22:33:57.662Z,99651.16
2023-05-06T22:36:28.876Z,99647.34
2023-05-06T22:38:56.103Z,99648.66
2023-05-06T22:41:23.048Z,99649.97
2023-05-06T22:43:49.995Z,99655.63
2023-05-06T22:46:17.070Z,99654.00
2023-05-06T22:48:46.904Z,99657.75
2023-05-06T22:51:19.003Z,99659.31
2023-05-06T22:53:45.921Z,99655.81
2023-05-06T22:56:13.042Z,99666.63
2023-05-06T22:58:39.976Z,99660.63
2023-05-06T23:01:07.462Z,99661.44
2023-05-06T23:03:36.014Z,99665.22
2023-05-06T23:06:04.348Z,99658.97
2023-05-06T23:08:31.459Z,99661.13
2023-05-06T23:10:58.396Z,99652.47
2023-05-06T23:13:26.387Z,99650.22
2023-05-06T23:15:53.617Z,99657.53
2023-05-06T23:18:20.784Z,99653.44
2023-05-06T23:20:47.820Z,99649.34
2023-05-06T23:23:14.783Z,99648.50
2023-05-06T23:25:41.751Z,99643.63
2023-05-06T23:28:08.688Z,99645.72
2023-05-06T23:30:35.645Z,99638.69
2023-05-06T23:33:03.710Z,99644.59
2023-05-06T23:35:30.845Z,99648.59
2023-05-06T23:37:57.799Z,99649.66
2023-05-06T23:40:24.740Z,99645.59
2023-05-06T23:42:51.676Z,99646.66
2023-05-06T23:45:19.674Z,99652.31
2023-05-06T23:47:46.732Z,99657.13
2023-05-06T23:50:14.283Z,99652.78
2023-05-06T23:52:41.737Z,99659.25
2023-05-06T23:55:09.323Z,99654.09
2023-05-06T23:57:36.493Z,99648.72
